sensor_id;sensor_type;location;lat;lon;timestamp;pressure;altitude;pressure_sealevel;temperature;humidity
71476;BME280;59286;59.274;17.974;2024-02-28T00:01:36;101420.66;;;1.92;100.00
71476;BME280;59286;59.274;17.974;2024-02-28T00:04:02;101423.22;;;1.92;100.00
71476;BME280;59286;59.274;17.974;2024-02-28T00:06:27;101399.13;;;1.80;100.00
71476;BME280;59286;59.274;17.974;2024-02-28T00:08:52;101389.03;;;1.79;100.00
71476;BME280;59286;59.274;17.974;2024-02-28T00:11:20;101368.69;;;1.64;100.00
71476;BME280;59286;59.274;17.974;2024-02-28T00:13:45;101402.31;;;1.82;100.00
71476;BME280;59286;59.274;17.974;2024-02-28T00:16:10;101399.84;;;1.87;100.00
71476;BME280;59286;59.274;17.974;2024-02-28T00:18:37;101410.66;;;1.96;100.00
71476;BME280;59286;59.274;17.974;2024-02-28T00:21:02;101407.03;;;1.85;100.00
71476;BME280;59286;59.274;17.974;2024-02-28T00:23:29;101401.00;;;1.91;100.00
71476;BME280;59286;59.274;17.974;2024-02-28T00:25:54;101382.19;;;1.84;100.00
71476;BME280;59286;59.274;17.974;2024-02-28T00:28:19;101401.00;;;1.91;100.00
71476;BME280;59286;59.274;17.974;2024-02-28T00:30:45;101382.94;;;1.73;100.00
71476;BME280;59286;59.274;17.974;2024-02-28T00:33:10;101383.53;;;1.87;100.00
71476;BME280;59286;59.274;17.974;2024-02-28T00:35:36;101403.84;;;2.02;100.00
71476;BME280;59286;59.274;17.974;2024-02-28T00:38:01;101396.53;;;1.98;100.00
71476;BME280;59286;59.274;17.974;2024-02-28T00:40:27;101394.97;;;1.98;100.00
71476;BME280;59286;59.274;17.974;2024-02-28T00:42:53;101365.66;;;1.85;100.00
71476;BME280;59286;59.274;17.974;2024-02-28T00:45:19;101347.97;;;1.71;100.00
71476;BME280;59286;59.274;17.974;2024-02-28T00:47:44;101376.81;;;1.86;100.00
71476;BME280;59286;59.274;17.974;2024-02-28T00:50:09;101398.31;;;1.98;100.00
71476;BME280;59286;59.274;17.974;2024-02-28T00:52:36;101386.28;;;1.92;100.00
71476;BME280;59286;59.274;17.974;2024-02-28T00:55:02;101336.56;;;1.60;100.00
71476;BME280;59286;59.274;17.974;2024-02-28T00:57:28;101385.84;;;1.95;100.00
71476;BME280;59286;59.274;17.974;2024-02-28T00:59:53;101376.34;;;1.89;100.00
71476;BME280;59286;59.274;17.974;2024-02-28T01:02:20;101373.13;;;1.75;100.00
71476;BME280;59286;59.274;17.974;2024-02-28T01:04:45;101382.47;;;1.76;100.00
71476;BME280;59286;59.274;17.974;2024-02-28T01:07:11;101371.22;;;1.71;100.00
71476;BME280;59286;59.274;17.974;2024-02-28T01:09:36;101392.22;;;1.92;100.00
71476;BME280;59286;59.274;17.974;2024-02-28T01:12:01;101378.38;;;1.87;100.00
71476;BME280;59286;59.274;17.974;2024-02-28T01:14:27;101390.44;;;1.93;100.00
71476;BME280;59286;59.274;17.974;2024-02-28T01:16:52;101374.72;;;1.76;100.00
71476;BME280;59286;59.274;17.974;2024-02-28T01:19:18;101340.16;;;1.59;100.00
71476;BME280;59286;59.274;17.974;2024-02-28T01:21:43;101390.72;;;1.85;100.00
71476;BME280;59286;59.274;17.974;2024-02-28T01:24:09;101390.81;;;1.78;100.00
71476;BME280;59286;59.274;17.974;2024-02-28T01:26:34;101383.47;;;1.75;100.00
71476;BME280;59286;59.274;17.974;2024-02-28T01:28:59;101379.31;;;1.74;100.00
71476;BME280;59286;59.274;17.974;2024-02-28T01:31:25;101365.69;;;1.67;100.00
71476;BME280;59286;59.274;17.974;2024-02-28T01:33:50;101379.91;;;1.76;100.00
71476;BME280;59286;59.274;17.974;2024-02-28T01:36:16;101373.22;;;1.69;100.00
71476;BME280;59286;59.274;17.974;2024-02-28T01:38:41;101388.09;;;1.73;100.00
71476;BME280;59286;59.274;17.974;2024-02-28T01:41:06;101383.34;;;1.70;100.00
71476;BME280;59286;59.274;17.974;2024-02-28T01:43:32;101381.34;;;1.72;100.00
71476;BME280;59286;59.274;17.974;2024-02-28T01:46:01;101386.06;;;1.75;100.00
71476;BME280;59286;59.274;17.974;2024-02-28T01:48:28;101365.75;;;1.61;100.00
71476;BME280;59286;59.274;17.974;2024-02-28T01:50:55;101382.13;;;1.73;100.00
71476;BME280;59286;59.274;17.974;2024-02-28T01:53:20;101356.84;;;1.57;100.00
71476;BME280;59286;59.274;17.974;2024-02-28T01:55:47;101378.53;;;1.74;100.00
71476;BME280;59286;59.274;17.974;2024-02-28T01:58:12;101374.38;;;1.73;100.00
71476;BME280;59286;59.274;17.974;2024-02-28T02:00:38;101378.53;;;1.74;100.00
71476;BME280;59286;59.274;17.974;2024-02-28T02:03:04;101371.22;;;1.71;100.00
71476;BME280;59286;59.274;17.974;2024-02-28T02:05:30;101357.94;;;1.67;100.00
71476;BME280;59286;59.274;17.974;2024-02-28T02:07:57;101361.75;;;1.65;100.00
71476;BME280;59286;59.274;17.974;2024-02-28T02:10:24;101349.91;;;1.57;100.00
71476;BME280;59286;59.274;17.974;2024-02-28T02:12:50;101334.84;;;1.54;100.00
71476;BME280;59286;59.274;17.974;2024-02-28T02:15:15;101322.00;;;1.48;100.00
71476;BME280;59286;59.274;17.974;2024-02-28T02:17:40;101338.25;;;1.66;100.00
71476;BME280;59286;59.274;17.974;2024-02-28T02:20:09;101359.22;;;1.76;100.00
71476;BME280;59286;59.274;17.974;2024-02-28T02:22:37;101361.47;;;1.73;100.00
71476;BME280;59286;59.274;17.974;2024-02-28T02:25:03;101322.00;;;1.48;100.00
71476;BME280;59286;59.274;17.974;2024-02-28T02:27:29;101351.91;;;1.73;100.00
71476;BME280;59286;59.274;17.974;2024-02-28T02:29:54;101313.59;;;1.52;100.00
71476;BME280;59286;59.274;17.974;2024-02-28T02:32:20;101347.63;;;1.67;100.00
71476;BME280;59286;59.274;17.974;2024-02-28T02:34:45;101340.84;;;1.66;100.00
71476;BME280;59286;59.274;17.974;2024-02-28T02:37:10;101334.69;;;1.49;100.00
71476;BME280;59286;59.274;17.974;2024-02-28T02:39:36;101345.31;;;1.59;100.00
71476;BME280;59286;59.274;17.974;2024-02-28T02:42:01;101328.19;;;1.47;100.00
71476;BME280;59286;59.274;17.974;2024-02-28T02:44:27;101317.56;;;1.37;100.00
71476;BME280;59286;59.274;17.974;2024-02-28T02:46:52;101326.69;;;1.39;100.00
71476;BME280;59286;59.274;17.974;2024-02-28T02:49:17;101291.03;;;1.12;100.00
71476;BME280;59286;59.274;17.974;2024-02-28T02:51:44;101347.81;;;1.48;100.00
71476;BME280;59286;59.274;17.974;2024-02-28T02:54:10;101341.31;;;1.45;100.00
71476;BME280;59286;59.274;17.974;2024-02-28T02:56:36;101335.13;;;1.46;100.00
71476;BME280;59286;59.274;17.974;2024-02-28T02:59:01;101338.72;;;1.45;100.00
71476;BME280;59286;59.274;17.974;2024-02-28T03:01:27;101344.66;;;1.46;100.00
71476;BME280;59286;59.274;17.974;2024-02-28T03:03:52;101340.44;;;1.33;100.00
71476;BME280;59286;59.274;17.974;2024-02-28T03:06:17;101347.91;;;1.41;100.00
71476;BME280;59286;59.274;17.974;2024-02-28T03:08:43;101338.06;;;1.32;100.00
71476;BME280;59286;59.274;17.974;2024-02-28T03:11:08;101343.59;;;1.35;100.00
71476;BME280;59286;59.274;17.974;2024-02-28T03:13:34;101331.63;;;1.23;100.00
71476;BME280;59286;59.274;17.974;2024-02-28T03:15:59;101308.53;;;1.10;100.00
71476;BME280;59286;59.274;17.974;2024-02-28T03:18:25;101326.25;;;1.24;100.00
71476;BME280;59286;59.274;17.974;2024-02-28T03:20:50;101339.63;;;1.33;100.00
71476;BME280;59286;59.274;17.974;2024-02-28T03:23:15;101298.69;;;1.18;100.00
71476;BME280;59286;59.274;17.974;2024-02-28T03:25:41;101298.06;;;1.23;100.00
71476;BME280;59286;59.274;17.974;2024-02-28T03:28:06;101324.44;;;1.43;100.00
71476;BME280;59286;59.274;17.974;2024-02-28T03:30:31;101289.75;;;1.21;100.00
71476;BME280;59286;59.274;17.974;2024-02-28T03:32:57;101325.03;;;1.45;100.00
71476;BME280;59286;59.274;17.974;2024-02-28T03:35:22;101313.06;;;1.32;100.00
71476;BME280;59286;59.274;17.974;2024-02-28T03:37:47;101316.03;;;1.29;100.00
71476;BME280;59286;59.274;17.974;2024-02-28T03:40:13;101312.47;;;1.30;100.00
71476;BME280;59286;59.274;17.974;2024-02-28T03:42:40;101325.53;;;1.35;100.00
71476;BME280;59286;59.274;17.974;2024-02-28T03:45:05;101307.88;;;1.32;100.00
71476;BME280;59286;59.274;17.974;2024-02-28T03:47:31;101301.94;;;1.32;100.00
71476;BME280;59286;59.274;17.974;2024-02-28T03:49:56;101309.00;;;1.36;100.00
71476;BME280;59286;59.274;17.974;2024-02-28T03:52:23;101295.97;;;1.31;100.00
71476;BME280;59286;59.274;17.974;2024-02-28T03:54:48;101324.66;;;1.41;100.00
71476;BME280;59286;59.274;17.974;2024-02-28T03:57:13;101324.50;;;1.36;100.00
71476;BME280;59286;59.274;17.974;2024-02-28T03:59:41;101320.13;;;1.37;100.00
71476;BME280;59286;59.274;17.974;2024-02-28T04:02:06;101322.94;;;1.35;100.00
71476;BME280;59286;59.274;17.974;2024-02-28T04:04:31;101334.28;;;1.34;100.00
71476;BME280;59286;59.274;17.974;2024-02-28T04:06:57;101307.09;;;1.14;100.00
71476;BME280;59286;59.274;17.974;2024-02-28T04:09:22;101324.44;;;1.25;100.00
71476;BME280;59286;59.274;17.974;2024-02-28T04:11:48;101299.41;;;1.07;100.00
71476;BME280;59286;59.274;17.974;2024-02-28T04:14:13;101321.06;;;1.24;100.00
71476;BME280;59286;59.274;17.974;2024-02-28T04:16:42;101323.88;;;1.23;100.00
71476;BME280;59286;59.274;17.974;2024-02-28T04:19:12;101322.28;;;1.22;100.00
71476;BME280;59286;59.274;17.974;2024-02-28T04:21:37;101311.72;;;1.23;100.00
71476;BME280;59286;59.274;17.974;2024-02-28T04:24:06;101294.31;;;1.19;100.00
71476;BME280;59286;59.274;17.974;2024-02-28T04:26:31;101296.56;;;1.15;100.00
71476;BME280;59286;59.274;17.974;2024-02-28T04:28:57;101313.81;;;1.33;100.00
71476;BME280;59286;59.274;17.974;2024-02-28T04:31:22;101304.78;;;1.24;100.00
71476;BME280;59286;59.274;17.974;2024-02-28T04:33:48;101275.09;;;1.15;100.00
71476;BME280;59286;59.274;17.974;2024-02-28T04:36:13;101276.13;;;1.14;100.00
71476;BME280;59286;59.274;17.974;2024-02-28T04:38:40;101311.19;;;1.21;100.00
71476;BME280;59286;59.274;17.974;2024-02-28T04:41:05;101296.97;;;1.12;100.00
71476;BME280;59286;59.274;17.974;2024-02-28T04:43:30;101303.72;;;1.13;100.00
71476;BME280;59286;59.274;17.974;2024-02-28T04:45:56;101292.88;;;1.05;100.00
71476;BME280;59286;59.274;17.974;2024-02-28T04:48:21;101312.84;;;1.16;100.00
71476;BME280;59286;59.274;17.974;2024-02-28T04:50:47;101263.50;;;0.87;100.00
71476;BME280;59286;59.274;17.974;2024-02-28T04:53:12;101282.34;;;1.06;100.00
71476;BME280;59286;59.274;17.974;2024-02-28T04:55:37;101286.94;;;1.22;100.00
71476;BME280;59286;59.274;17.974;2024-02-28T04:58:03;101279.91;;;1.11;100.00
71476;BME280;59286;59.274;17.974;2024-02-28T05:00:28;101300.19;;;1.26;100.00
71476;BME280;59286;59.274;17.974;2024-02-28T05:02:54;101280.63;;;1.18;100.00
71476;BME280;59286;59.274;17.974;2024-02-28T05:05:19;101280.84;;;1.17;100.00
71476;BME280;59286;59.274;17.974;2024-02-28T05:07:44;101270.75;;;1.15;100.00
71476;BME280;59286;59.274;17.974;2024-02-28T05:10:10;101303.84;;;1.36;100.00
71476;BME280;59286;59.274;17.974;2024-02-28T05:12:36;101262.41;;;1.13;100.00
71476;BME280;59286;59.274;17.974;2024-02-28T05:15:01;101289.59;;;1.34;100.00
71476;BME280;59286;59.274;17.974;2024-02-28T05:17:26;101296.31;;;1.35;100.00
71476;BME280;59286;59.274;17.974;2024-02-28T05:19:52;101301.06;;;1.38;100.00
71476;BME280;59286;59.274;17.974;2024-02-28T05:22:18;101299.47;;;1.37;100.00
71476;BME280;59286;59.274;17.974;2024-02-28T05:24:45;101301.84;;;1.38;100.00
71476;BME280;59286;59.274;17.974;2024-02-28T05:27:11;101300.41;;;1.42;100.00
71476;BME280;59286;59.274;17.974;2024-02-28T05:29:36;101278.34;;;1.28;100.00
71476;BME280;59286;59.274;17.974;2024-02-28T05:32:02;101274.59;;;1.24;100.00
71476;BME280;59286;59.274;17.974;2024-02-28T05:34:27;101298.97;;;1.46;100.00
71476;BME280;59286;59.274;17.974;2024-02-28T05:36:53;101296.97;;;1.48;100.00
71476;BME280;59286;59.274;17.974;2024-02-28T05:39:18;101305.16;;;1.45;100.00
71476;BME280;59286;59.274;17.974;2024-02-28T05:41:44;101290.28;;;1.41;100.00
71476;BME280;59286;59.274;17.974;2024-02-28T05:44:09;101283.63;;;1.33;100.00
71476;BME280;59286;59.274;17.974;2024-02-28T05:46:34;101278.47;;;1.33;100.00
71476;BME280;59286;59.274;17.974;2024-02-28T05:49:02;101261.56;;;1.19;100.00
71476;BME280;59286;59.274;17.974;2024-02-28T05:51:27;101285.06;;;1.29;100.00
71476;BME280;59286;59.274;17.974;2024-02-28T05:53:52;101294.31;;;1.37;100.00
71476;BME280;59286;59.274;17.974;2024-02-28T05:56:18;101291.72;;;1.37;100.00
71476;BME280;59286;59.274;17.974;2024-02-28T05:58:45;101285.22;;;1.34;100.00
71476;BME280;59286;59.274;17.974;2024-02-28T06:01:12;101286.16;;;1.40;100.00
71476;BME280;59286;59.274;17.974;2024-02-28T06:03:38;101259.56;;;1.21;100.00
71476;BME280;59286;59.274;17.974;2024-02-28T06:06:04;101296.47;;;1.40;100.00
71476;BME280;59286;59.274;17.974;2024-02-28T06:08:38;101290.66;;;1.44;100.00
71476;BME280;59286;59.274;17.974;2024-02-28T06:11:04;101278.81;;;1.37;100.00
71476;BME280;59286;59.274;17.974;2024-02-28T06:13:31;101284.13;;;1.42;100.00
71476;BME280;59286;59.274;17.974;2024-02-28T06:15:57;101280.91;;;1.46;100.00
71476;BME280;59286;59.274;17.974;2024-02-28T06:18:23;101256.53;;;1.24;100.00
71476;BME280;59286;59.274;17.974;2024-02-28T06:20:51;101273.16;;;1.46;100.00
71476;BME280;59286;59.274;17.974;2024-02-28T06:23:17;101287.09;;;1.57;100.00
71476;BME280;59286;59.274;17.974;2024-02-28T06:25:43;101246.50;;;1.34;100.00
71476;BME280;59286;59.274;17.974;2024-02-28T06:28:08;101273.84;;;1.53;100.00
71476;BME280;59286;59.274;17.974;2024-02-28T06:30:35;101281.53;;;1.60;100.00
71476;BME280;59286;59.274;17.974;2024-02-28T06:33:00;101284.91;;;1.60;100.00
71476;BME280;59286;59.274;17.974;2024-02-28T06:35:26;101293.75;;;1.53;100.00
71476;BME280;59286;59.274;17.974;2024-02-28T06:37:51;101283.91;;;1.43;100.00
71476;BME280;59286;59.274;17.974;2024-02-28T06:40:17;101296.53;;;1.51;100.00
71476;BME280;59286;59.274;17.974;2024-02-28T06:42:42;101289.34;;;1.53;100.00
71476;BME280;59286;59.274;17.974;2024-02-28T06:45:08;101280.53;;;1.43;100.00
71476;BME280;59286;59.274;17.974;2024-02-28T06:47:34;101302.78;;;1.62;100.00
71476;BME280;59286;59.274;17.974;2024-02-28T06:49:59;101269.56;;;1.47;100.00
71476;BME280;59286;59.274;17.974;2024-02-28T06:52:25;101294.34;;;1.66;100.00
71476;BME280;59286;59.274;17.974;2024-02-28T06:54:50;101282.53;;;1.59;100.00
71476;BME280;59286;59.274;17.974;2024-02-28T06:57:16;101295.06;;;1.73;100.00
71476;BME280;59286;59.274;17.974;2024-02-28T06:59:42;101300.03;;;1.75;100.00
71476;BME280;59286;59.274;17.974;2024-02-28T07:02:07;101283.16;;;1.72;100.00
71476;BME280;59286;59.274;17.974;2024-02-28T07:04:32;101278.06;;;1.66;100.00
71476;BME280;59286;59.274;17.974;2024-02-28T07:06:58;101270.09;;;1.67;100.00
71476;BME280;59286;59.274;17.974;2024-02-28T07:09:23;101259.31;;;1.70;100.00
71476;BME280;59286;59.274;17.974;2024-02-28T07:11:51;101278.59;;;1.86;100.00
71476;BME280;59286;59.274;17.974;2024-02-28T07:14:16;101269.47;;;1.83;100.00
71476;BME280;59286;59.274;17.974;2024-02-28T07:16:41;101282.91;;;1.92;100.00
71476;BME280;59286;59.274;17.974;2024-02-28T07:19:07;101293.13;;;1.98;100.00
71476;BME280;59286;59.274;17.974;2024-02-28T07:21:32;101289.09;;;2.03;100.00
71476;BME280;59286;59.274;17.974;2024-02-28T07:23:58;101278.59;;;1.86;100.00
71476;BME280;59286;59.274;17.974;2024-02-28T07:26:23;101285.94;;;2.01;100.00
71476;BME280;59286;59.274;17.974;2024-02-28T07:28:49;101283.00;;;1.97;100.00
71476;BME280;59286;59.274;17.974;2024-02-28T07:31:23;101280.19;;;1.98;100.00
71476;BME280;59286;59.274;17.974;2024-02-28T07:33:49;101277.38;;;2.00;100.00
71476;BME280;59286;59.274;17.974;2024-02-28T07:36:14;101274.00;;;1.99;100.00
71476;BME280;59286;59.274;17.974;2024-02-28T07:38:41;101292.25;;;2.05;100.00
71476;BME280;59286;59.274;17.974;2024-02-28T07:41:07;101269.28;;;1.96;100.00
71476;BME280;59286;59.274;17.974;2024-02-28T07:43:33;101287.09;;;2.05;100.00
71476;BME280;59286;59.274;17.974;2024-02-28T07:46:06;101268.50;;;1.96;100.00
71476;BME280;59286;59.274;17.974;2024-02-28T07:48:31;101284.72;;;2.03;100.00
71476;BME280;59286;59.274;17.974;2024-02-28T07:50:57;101265.16;;;2.07;100.00
71476;BME280;59286;59.274;17.974;2024-02-28T07:53:22;101259.97;;;2.07;100.00
71476;BME280;59286;59.274;17.974;2024-02-28T07:55:47;101280.84;;;2.24;100.00
71476;BME280;59286;59.274;17.974;2024-02-28T07:58:14;101248.06;;;2.06;100.00
71476;BME280;59286;59.274;17.974;2024-02-28T08:00:40;101268.34;;;2.21;100.00
71476;BME280;59286;59.274;17.974;2024-02-28T08:03:06;101276.22;;;2.26;100.00
71476;BME280;59286;59.274;17.974;2024-02-28T08:05:31;101276.34;;;2.31;100.00
71476;BME280;59286;59.274;17.974;2024-02-28T08:08:00;101267.91;;;2.24;100.00
71476;BME280;59286;59.274;17.974;2024-02-28T08:10:26;101270.59;;;2.29;100.00
71476;BME280;59286;59.274;17.974;2024-02-28T08:12:51;101276.56;;;2.41;100.00
71476;BME280;59286;59.274;17.974;2024-02-28T08:15:17;101264.22;;;2.31;100.00
71476;BME280;59286;59.274;17.974;2024-02-28T08:17:42;101280.97;;;2.40;100.00
71476;BME280;59286;59.274;17.974;2024-02-28T08:20:08;101269.94;;;2.22;100.00
71476;BME280;59286;59.274;17.974;2024-02-28T08:22:33;101283.88;;;2.32;100.00
71476;BME280;59286;59.274;17.974;2024-02-28T08:24:59;101285.34;;;2.40;100.00
71476;BME280;59286;59.274;17.974;2024-02-28T08:27:24;101270.91;;;2.21;100.00
71476;BME280;59286;59.274;17.974;2024-02-28T08:29:50;101242.22;;;1.99;100.00
71476;BME280;59286;59.274;17.974;2024-02-28T08:32:17;101270.34;;;2.19;100.00
71476;BME280;59286;59.274;17.974;2024-02-28T08:34:44;101291.75;;;2.37;100.00
71476;BME280;59286;59.274;17.974;2024-02-28T08:37:10;101287.81;;;2.35;100.00
71476;BME280;59286;59.274;17.974;2024-02-28T08:39:35;101293.69;;;2.42;100.00
71476;BME280;59286;59.274;17.974;2024-02-28T08:42:00;101269.16;;;2.33;100.00
71476;BME280;59286;59.274;17.974;2024-02-28T08:44:26;101257.47;;;2.42;100.00
71476;BME280;59286;59.274;17.974;2024-02-28T08:46:51;101259.03;;;2.43;100.00
71476;BME280;59286;59.274;17.974;2024-02-28T08:49:16;101271.19;;;2.54;100.00
71476;BME280;59286;59.274;17.974;2024-02-28T08:51:42;101262.75;;;2.47;100.00
71476;BME280;59286;59.274;17.974;2024-02-28T08:54:07;101248.69;;;2.43;100.00
71476;BME280;59286;59.274;17.974;2024-02-28T08:56:33;101254.75;;;2.60;100.00
71476;BME280;59286;59.274;17.974;2024-02-28T08:58:59;101254.75;;;2.60;100.00
71476;BME280;59286;59.274;17.974;2024-02-28T09:01:24;101271.19;;;2.77;100.00
71476;BME280;59286;59.274;17.974;2024-02-28T09:03:50;101268.38;;;2.78;100.00
71476;BME280;59286;59.274;17.974;2024-02-28T09:06:15;101272.22;;;2.76;100.00
71476;BME280;59286;59.274;17.974;2024-02-28T09:08:40;101260.03;;;2.76;100.00
71476;BME280;59286;59.274;17.974;2024-02-28T09:11:06;101264.31;;;2.82;100.00
71476;BME280;59286;59.274;17.974;2024-02-28T09:13:31;101247.22;;;2.70;100.00
71476;BME280;59286;59.274;17.974;2024-02-28T09:15:56;101273.22;;;2.86;100.00
71476;BME280;59286;59.274;17.974;2024-02-28T09:18:23;101274.09;;;2.92;100.00
71476;BME280;59286;59.274;17.974;2024-02-28T09:20:48;101266.09;;;2.93;100.00
71476;BME280;59286;59.274;17.974;2024-02-28T09:23:13;101266.34;;;2.92;100.00
71476;BME280;59286;59.274;17.974;2024-02-28T09:25:39;101257.78;;;2.91;100.00
71476;BME280;59286;59.274;17.974;2024-02-28T09:28:05;101264.63;;;3.09;100.00
71476;BME280;59286;59.274;17.974;2024-02-28T09:30:31;101263.16;;;3.13;100.00
71476;BME280;59286;59.274;17.974;2024-02-28T09:32:56;101272.59;;;3.19;100.00
71476;BME280;59286;59.274;17.974;2024-02-28T09:35:21;101253.00;;;3.12;100.00
71476;BME280;59286;59.274;17.974;2024-02-28T09:37:47;101247.31;;;2.98;100.00
71476;BME280;59286;59.274;17.974;2024-02-28T09:40:12;101262.94;;;3.03;100.00
71476;BME280;59286;59.274;17.974;2024-02-28T09:42:38;101265.63;;;3.08;100.00
71476;BME280;59286;59.274;17.974;2024-02-28T09:45:04;101252.94;;;2.95;100.00
71476;BME280;59286;59.274;17.974;2024-02-28T09:47:30;101268.22;;;2.96;100.00
71476;BME280;59286;59.274;17.974;2024-02-28T09:49:57;101260.47;;;2.96;100.00
71476;BME280;59286;59.274;17.974;2024-02-28T09:52:26;101267.56;;;3.01;100.00
71476;BME280;59286;59.274;17.974;2024-02-28T09:54:53;101256.09;;;2.97;100.00
71476;BME280;59286;59.274;17.974;2024-02-28T09:57:18;101266.44;;;3.09;100.00
71476;BME280;59286;59.274;17.974;2024-02-28T09:59:44;101252.16;;;2.94;100.00
71476;BME280;59286;59.274;17.974;2024-02-28T10:02:10;101261.81;;;2.99;100.00
71476;BME280;59286;59.274;17.974;2024-02-28T10:04:37;101248.69;;;2.89;100.00
71476;BME280;59286;59.274;17.974;2024-02-28T10:07:16;101247.22;;;2.81;100.00
71476;BME280;59286;59.274;17.974;2024-02-28T10:09:42;101256.53;;;2.94;100.00
71476;BME280;59286;59.274;17.974;2024-02-28T10:12:07;101221.78;;;2.78;100.00
71476;BME280;59286;59.274;17.974;2024-02-28T10:14:33;101249.22;;;2.91;100.00
71476;BME280;59286;59.274;17.974;2024-02-28T10:16:59;101247.00;;;2.83;100.00
71476;BME280;59286;59.274;17.974;2024-02-28T10:19:24;101243.63;;;2.82;100.00
71476;BME280;59286;59.274;17.974;2024-02-28T10:21:50;101236.50;;;2.78;100.00
71476;BME280;59286;59.274;17.974;2024-02-28T10:24:16;101241.81;;;2.83;100.00
71476;BME280;59286;59.274;17.974;2024-02-28T10:26:44;101219.66;;;2.64;100.00
71476;BME280;59286;59.274;17.974;2024-02-28T10:29:10;101244.41;;;2.83;100.00
71476;BME280;59286;59.274;17.974;2024-02-28T10:31:37;101243.03;;;2.92;100.00
71476;BME280;59286;59.274;17.974;2024-02-28T10:34:03;101232.22;;;2.83;100.00
71476;BME280;59286;59.274;17.974;2024-02-28T10:36:31;101240.34;;;2.87;100.00
71476;BME280;59286;59.274;17.974;2024-02-28T10:38:57;101248.69;;;2.89;100.00
71476;BME280;59286;59.274;17.974;2024-02-28T10:41:25;101207.06;;;2.67;100.00
71476;BME280;59286;59.274;17.974;2024-02-28T10:43:51;101247.97;;;3.05;100.00
71476;BME280;59286;59.274;17.974;2024-02-28T10:46:20;101248.63;;;3.12;100.00
71476;BME280;59286;59.274;17.974;2024-02-28T10:48:46;101241.19;;;3.04;100.00
71476;BME280;59286;59.274;17.974;2024-02-28T10:51:20;101217.72;;;2.94;100.00
71476;BME280;59286;59.274;17.974;2024-02-28T10:53:49;101246.50;;;3.09;100.00
71476;BME280;59286;59.274;17.974;2024-02-28T10:56:16;101218.06;;;2.86;100.00
71476;BME280;59286;59.274;17.974;2024-02-28T10:58:51;101229.97;;;2.98;100.00
71476;BME280;59286;59.274;17.974;2024-02-28T11:01:17;101239.66;;;3.03;100.00
71476;BME280;59286;59.274;17.974;2024-02-28T11:03:44;101219.03;;;3.08;100.00
71476;BME280;59286;59.274;17.974;2024-02-28T11:06:20;101195.03;;;3.13;100.00
71476;BME280;59286;59.274;17.974;2024-02-28T11:08:51;101206.81;;;3.32;100.00
71476;BME280;59286;59.274;17.974;2024-02-28T11:11:20;101208.88;;;3.46;100.00
71476;BME280;59286;59.274;17.974;2024-02-28T11:13:56;101216.94;;;3.61;100.00
71476;BME280;59286;59.274;17.974;2024-02-28T11:16:32;101210.78;;;3.67;100.00
71476;BME280;59286;59.274;17.974;2024-02-28T11:19:00;101217.88;;;3.72;100.00
71476;BME280;59286;59.274;17.974;2024-02-28T11:21:27;101198.19;;;3.71;100.00
71476;BME280;59286;59.274;17.974;2024-02-28T11:23:57;101205.56;;;3.79;100.00
71476;BME280;59286;59.274;17.974;2024-02-28T11:26:24;101195.03;;;3.69;100.00
71476;BME280;59286;59.274;17.974;2024-02-28T11:28:49;101207.28;;;3.73;99.61
71476;BME280;59286;59.274;17.974;2024-02-28T11:31:15;101221.53;;;3.87;100.00
71476;BME280;59286;59.274;17.974;2024-02-28T11:33:41;101205.97;;;3.87;100.00
71476;BME280;59286;59.274;17.974;2024-02-28T11:36:07;101212.41;;;4.02;100.00
71476;BME280;59286;59.274;17.974;2024-02-28T11:38:34;101207.06;;;3.91;100.00
71476;BME280;59286;59.274;17.974;2024-02-28T11:41:03;101196.69;;;3.91;100.00
71476;BME280;59286;59.274;17.974;2024-02-28T11:43:31;101200.69;;;3.99;98.01
71476;BME280;59286;59.274;17.974;2024-02-28T11:45:56;101185.22;;;3.87;98.47
71476;BME280;59286;59.274;17.974;2024-02-28T11:48:22;101195.19;;;3.79;100.00
71476;BME280;59286;59.274;17.974;2024-02-28T11:50:48;101206.59;;;3.78;100.00
71476;BME280;59286;59.274;17.974;2024-02-28T11:53:13;101191.66;;;3.85;100.00
71476;BME280;59286;59.274;17.974;2024-02-28T11:55:38;101194.06;;;3.75;99.71
71476;BME280;59286;59.274;17.974;2024-02-28T11:58:09;101205.47;;;3.74;99.42
71476;BME280;59286;59.274;17.974;2024-02-28T12:00:45;101184.72;;;3.57;98.99
71476;BME280;59286;59.274;17.974;2024-02-28T12:03:10;101195.41;;;3.61;100.00
71476;BME280;59286;59.274;17.974;2024-02-28T12:05:43;101190.19;;;3.44;100.00
71476;BME280;59286;59.274;17.974;2024-02-28T12:08:10;101171.00;;;3.45;100.00
71476;BME280;59286;59.274;17.974;2024-02-28T12:10:35;101183.28;;;3.50;99.90
71476;BME280;59286;59.274;17.974;2024-02-28T12:13:01;101186.88;;;3.49;100.00
71476;BME280;59286;59.274;17.974;2024-02-28T12:15:29;101157.97;;;3.40;100.00
71476;BME280;59286;59.274;17.974;2024-02-28T12:17:54;101186.59;;;3.62;100.00
71476;BME280;59286;59.274;17.974;2024-02-28T12:20:20;101176.56;;;3.65;100.00
71476;BME280;59286;59.274;17.974;2024-02-28T12:22:45;101164.78;;;3.74;100.00
71476;BME280;59286;59.274;17.974;2024-02-28T12:25:11;101142.31;;;3.63;100.00
71476;BME280;59286;59.274;17.974;2024-02-28T12:27:36;101166.34;;;3.75;100.00
71476;BME280;59286;59.274;17.974;2024-02-28T12:30:02;101149.63;;;3.66;98.30
71476;BME280;59286;59.274;17.974;2024-02-28T12:32:27;101156.84;;;3.64;96.91
71476;BME280;59286;59.274;17.974;2024-02-28T12:34:53;101160.91;;;3.60;97.93